This is the latest recevied weather packets stored in our database for station/object DA6VK-10. If no packets are shown the sender has not sent any weather packets the latest 10 day(s).
| Time | Temp. | Humidity | Pressure | Rain* | Wind** | Luminosity | Snow |
|---|---|---|---|---|---|---|---|
| 1777616043 | 11.67° C | 36% | 1027.6 hPa | - | - | - | - |
| 1777615142 | 11.67° C | 36% | 1027.6 hPa | - | - | - | - |
| 1777614241 | 11.11° C | 36% | 1027.7 hPa | - | - | - | - |
| 1777613340 | 11.11° C | 36% | 1027.8 hPa | - | - | - | - |
| 1777612439 | 11.11° C | 36% | 1027.7 hPa | - | - | - | - |
| 1777611538 | 11.11° C | 37% | 1027.7 hPa | - | - | - | - |
| 1777610638 | 10.56° C | 37% | 1027.6 hPa | - | - | - | - |
| 1777609737 | 10.56° C | 36% | 1027.3 hPa | - | - | - | - |
| 1777608836 | 11.11° C | 34% | 1027.4 hPa | - | - | - | - |
| 1777607935 | 11.67° C | 34% | 1027.3 hPa | - | - | - | - |
| 1777607034 | 11.67° C | 36% | 1027.3 hPa | - | - | - | - |
| 1777606133 | 11.67° C | 35% | 1027.2 hPa | - | - | - | - |
| 1777604332 | 12.22° C | 32% | 1027.4 hPa | - | - | - | - |
| 1777601629 | 13.33° C | 28% | 1027.4 hPa | - | - | - | - |
| 1777585415 | 17.22° C | 21% | 1026.9 hPa | - | - | - | - |
| 1777584514 | 17.78° C | 20% | 1026.8 hPa | - | - | - | - |
| 1777580911 | 19.44° C | 18% | 1026.8 hPa | - | - | - | - |
| 1777575504 | 22.78° C | 13% | 1026.2 hPa | - | - | - | - |
| 1777567397 | 26.11° C | 12% | 1025.9 hPa | - | - | - | - |
| 1777563794 | 24.44° C | 13% | 1024.7 hPa | - | - | - | - |
| 1777533163 | 12.22° C | 28% | 1028.3 hPa | - | - | - | - |
| 1777526857 | 11.67° C | 28% | 1028.1 hPa | - | - | - | - |
| 1777523254 | 11.67° C | 29% | 1027.8 hPa | - | - | - | - |
| 1777520552 | 12.22° C | 29% | 1027.7 hPa | - | - | - | - |
| 1777514246 | 13.33° C | 26% | 1027.5 hPa | - | - | - | - |
* Rain since midnight (hover to see other rain measurements)
** Current wind speed in m/s (hover to see current wind gust speed)